Richmond, Kansas
Current Conditions -  °F | °C
As of 7:53 PM on Sunday 21 Dec 2014 (Local Time) from KIXD Reporting Station
Overcast Overcast  
Wind Chill: 35°   Ceiling: 1900
Heat Index: 43°   Visibility: 8mi
Dew Point: 41°   Wind: 16mph
Humidity: 93%   Direction: 140°SE
Pressure: 29.78"   Gusts: NA
Location:  38.4°N, 95.25°W
Report Text: KIXD 220153Z 14014KT 8SM SCT011 OVC019 06/05 A2978 RMK AO2 SLP088 T00610050
Loading
Personal Weather Stations






























Interactive Weather Map New forecast layout! Learn more

10-Day Weather Forecast

Advertisements
Track Severe Weather on mobile